sensor_id;sensor_type;location;lat;lon;timestamp;P1;durP1;ratioP1;P2;durP2;ratioP2
19024;SDS011;9645;51.448;6.260;2023-06-19T00:00:44;9.10;;;6.47;;
19024;SDS011;9645;51.448;6.260;2023-06-19T00:03:11;9.17;;;6.90;;
19024;SDS011;9645;51.448;6.260;2023-06-19T00:05:38;9.20;;;6.80;;
19024;SDS011;9645;51.448;6.260;2023-06-19T00:08:05;9.70;;;6.20;;
19024;SDS011;9645;51.448;6.260;2023-06-19T00:10:32;10.00;;;5.83;;
19024;SDS011;9645;51.448;6.260;2023-06-19T00:12:59;10.03;;;6.63;;
19024;SDS011;9645;51.448;6.260;2023-06-19T00:15:30;8.17;;;6.13;;
19024;SDS011;9645;51.448;6.260;2023-06-19T00:17:57;11.70;;;6.50;;
19024;SDS011;9645;51.448;6.260;2023-06-19T00:20:24;8.23;;;5.80;;
19024;SDS011;9645;51.448;6.260;2023-06-19T00:22:51;18.80;;;6.17;;
19024;SDS011;9645;51.448;6.260;2023-06-19T00:25:19;7.57;;;6.03;;
19024;SDS011;9645;51.448;6.260;2023-06-19T00:27:46;9.87;;;6.37;;
19024;SDS011;9645;51.448;6.260;2023-06-19T00:30:13;12.37;;;6.30;;
19024;SDS011;9645;51.448;6.260;2023-06-19T00:32:42;11.27;;;6.97;;
19024;SDS011;9645;51.448;6.260;2023-06-19T00:35:14;8.23;;;6.20;;
19024;SDS011;9645;51.448;6.260;2023-06-19T00:37:43;9.30;;;6.93;;
19024;SDS011;9645;51.448;6.260;2023-06-19T00:40:12;10.63;;;6.23;;
19024;SDS011;9645;51.448;6.260;2023-06-19T00:42:42;10.63;;;7.27;;
19024;SDS011;9645;51.448;6.260;2023-06-19T00:45:09;8.27;;;6.37;;
19024;SDS011;9645;51.448;6.260;2023-06-19T00:47:37;8.47;;;6.10;;
19024;SDS011;9645;51.448;6.260;2023-06-19T00:50:06;9.10;;;6.53;;
19024;SDS011;9645;51.448;6.260;2023-06-19T00:52:33;10.07;;;6.87;;
19024;SDS011;9645;51.448;6.260;2023-06-19T00:55:01;7.97;;;6.30;;
19024;SDS011;9645;51.448;6.260;2023-06-19T00:57:29;10.27;;;6.37;;
19024;SDS011;9645;51.448;6.260;2023-06-19T00:59:57;11.27;;;7.30;;
19024;SDS011;9645;51.448;6.260;2023-06-19T01:02:24;11.53;;;6.27;;
19024;SDS011;9645;51.448;6.260;2023-06-19T01:04:51;9.20;;;6.77;;
19024;SDS011;9645;51.448;6.260;2023-06-19T01:07:22;11.10;;;7.40;;
19024;SDS011;9645;51.448;6.260;2023-06-19T01:09:52;8.70;;;6.90;;
19024;SDS011;9645;51.448;6.260;2023-06-19T01:12:21;8.70;;;6.37;;
19024;SDS011;9645;51.448;6.260;2023-06-19T01:14:50;8.17;;;6.73;;
19024;SDS011;9645;51.448;6.260;2023-06-19T01:17:20;12.60;;;6.73;;
19024;SDS011;9645;51.448;6.260;2023-06-19T01:19:48;8.77;;;6.80;;
19024;SDS011;9645;51.448;6.260;2023-06-19T01:22:23;8.30;;;6.57;;
19024;SDS011;9645;51.448;6.260;2023-06-19T01:24:50;9.33;;;6.53;;
19024;SDS011;9645;51.448;6.260;2023-06-19T01:27:17;9.70;;;7.17;;
19024;SDS011;9645;51.448;6.260;2023-06-19T01:29:45;8.90;;;6.90;;
19024;SDS011;9645;51.448;6.260;2023-06-19T01:32:13;8.87;;;6.70;;
19024;SDS011;9645;51.448;6.260;2023-06-19T01:34:45;8.33;;;6.20;;
19024;SDS011;9645;51.448;6.260;2023-06-19T01:37:13;10.50;;;6.90;;
19024;SDS011;9645;51.448;6.260;2023-06-19T01:39:43;10.07;;;6.87;;
19024;SDS011;9645;51.448;6.260;2023-06-19T01:42:11;7.60;;;6.43;;
19024;SDS011;9645;51.448;6.260;2023-06-19T01:44:40;10.37;;;7.13;;
19024;SDS011;9645;51.448;6.260;2023-06-19T01:47:08;13.37;;;7.53;;
19024;SDS011;9645;51.448;6.260;2023-06-19T01:49:36;10.67;;;7.00;;
19024;SDS011;9645;51.448;6.260;2023-06-19T01:52:03;13.20;;;7.10;;
19024;SDS011;9645;51.448;6.260;2023-06-19T01:54:31;9.63;;;7.00;;
19024;SDS011;9645;51.448;6.260;2023-06-19T01:56:59;14.23;;;7.40;;
19024;SDS011;9645;51.448;6.260;2023-06-19T01:59:26;13.80;;;7.30;;
19024;SDS011;9645;51.448;6.260;2023-06-19T02:01:53;9.87;;;7.50;;
19024;SDS011;9645;51.448;6.260;2023-06-19T02:04:20;11.60;;;7.70;;
19024;SDS011;9645;51.448;6.260;2023-06-19T02:06:47;12.97;;;8.20;;
19024;SDS011;9645;51.448;6.260;2023-06-19T02:09:14;12.57;;;7.87;;
19024;SDS011;9645;51.448;6.260;2023-06-19T02:11:41;9.23;;;6.93;;
19024;SDS011;9645;51.448;6.260;2023-06-19T02:14:09;10.97;;;7.57;;
19024;SDS011;9645;51.448;6.260;2023-06-19T02:16:37;14.27;;;8.00;;
19024;SDS011;9645;51.448;6.260;2023-06-19T02:19:05;9.30;;;7.40;;
19024;SDS011;9645;51.448;6.260;2023-06-19T02:21:32;11.63;;;6.93;;
19024;SDS011;9645;51.448;6.260;2023-06-19T02:23:59;14.90;;;6.43;;
19024;SDS011;9645;51.448;6.260;2023-06-19T02:26:26;10.37;;;6.60;;
19024;SDS011;9645;51.448;6.260;2023-06-19T02:28:54;7.27;;;5.67;;
19024;SDS011;9645;51.448;6.260;2023-06-19T02:31:23;8.87;;;5.27;;
19024;SDS011;9645;51.448;6.260;2023-06-19T02:33:50;14.43;;;5.10;;
19024;SDS011;9645;51.448;6.260;2023-06-19T02:36:17;10.30;;;4.50;;
19024;SDS011;9645;51.448;6.260;2023-06-19T02:38:45;11.93;;;4.07;;
19024;SDS011;9645;51.448;6.260;2023-06-19T02:41:12;9.67;;;4.50;;
19024;SDS011;9645;51.448;6.260;2023-06-19T02:43:39;6.53;;;3.80;;
19024;SDS011;9645;51.448;6.260;2023-06-19T02:46:06;5.50;;;4.20;;
19024;SDS011;9645;51.448;6.260;2023-06-19T02:48:35;5.53;;;4.27;;
19024;SDS011;9645;51.448;6.260;2023-06-19T02:51:02;9.73;;;3.80;;
19024;SDS011;9645;51.448;6.260;2023-06-19T02:53:29;6.50;;;3.77;;
19024;SDS011;9645;51.448;6.260;2023-06-19T02:55:56;6.97;;;3.80;;
19024;SDS011;9645;51.448;6.260;2023-06-19T02:58:23;8.87;;;3.60;;
19024;SDS011;9645;51.448;6.260;2023-06-19T03:00:51;6.20;;;3.47;;
19024;SDS011;9645;51.448;6.260;2023-06-19T03:03:19;4.17;;;3.13;;
19024;SDS011;9645;51.448;6.260;2023-06-19T03:05:47;4.50;;;3.10;;
19024;SDS011;9645;51.448;6.260;2023-06-19T03:08:14;10.83;;;3.47;;
19024;SDS011;9645;51.448;6.260;2023-06-19T03:10:41;8.23;;;3.80;;
19024;SDS011;9645;51.448;6.260;2023-06-19T03:13:08;6.03;;;3.63;;
19024;SDS011;9645;51.448;6.260;2023-06-19T03:15:35;3.70;;;3.00;;
19024;SDS011;9645;51.448;6.260;2023-06-19T03:18:02;14.33;;;4.30;;
19024;SDS011;9645;51.448;6.260;2023-06-19T03:20:31;6.60;;;3.90;;
19024;SDS011;9645;51.448;6.260;2023-06-19T03:23:00;7.20;;;4.00;;
19024;SDS011;9645;51.448;6.260;2023-06-19T03:25:27;6.50;;;3.63;;
19024;SDS011;9645;51.448;6.260;2023-06-19T03:27:59;6.53;;;3.60;;
19024;SDS011;9645;51.448;6.260;2023-06-19T03:30:26;5.43;;;3.70;;
19024;SDS011;9645;51.448;6.260;2023-06-19T03:32:53;8.13;;;4.03;;
19024;SDS011;9645;51.448;6.260;2023-06-19T03:35:20;6.03;;;3.50;;
19024;SDS011;9645;51.448;6.260;2023-06-19T03:37:47;7.37;;;3.60;;
19024;SDS011;9645;51.448;6.260;2023-06-19T03:40:16;3.93;;;3.50;;
19024;SDS011;9645;51.448;6.260;2023-06-19T03:42:42;7.53;;;4.00;;
19024;SDS011;9645;51.448;6.260;2023-06-19T03:45:10;6.33;;;3.73;;
19024;SDS011;9645;51.448;6.260;2023-06-19T03:47:36;3.97;;;3.23;;
19024;SDS011;9645;51.448;6.260;2023-06-19T03:50:04;8.97;;;4.10;;
19024;SDS011;9645;51.448;6.260;2023-06-19T03:52:34;5.67;;;4.00;;
19024;SDS011;9645;51.448;6.260;2023-06-19T03:55:02;5.67;;;3.70;;
19024;SDS011;9645;51.448;6.260;2023-06-19T03:57:30;6.77;;;3.50;;
19024;SDS011;9645;51.448;6.260;2023-06-19T03:59:57;4.83;;;3.47;;
19024;SDS011;9645;51.448;6.260;2023-06-19T04:02:24;4.50;;;3.53;;
19024;SDS011;9645;51.448;6.260;2023-06-19T04:04:52;7.13;;;3.50;;
19024;SDS011;9645;51.448;6.260;2023-06-19T04:07:18;6.53;;;4.00;;
19024;SDS011;9645;51.448;6.260;2023-06-19T04:09:45;4.30;;;3.23;;
19024;SDS011;9645;51.448;6.260;2023-06-19T04:12:12;6.03;;;3.83;;
19024;SDS011;9645;51.448;6.260;2023-06-19T04:14:41;7.13;;;4.17;;
19024;SDS011;9645;51.448;6.260;2023-06-19T04:17:08;5.03;;;3.87;;
19024;SDS011;9645;51.448;6.260;2023-06-19T04:19:34;10.70;;;4.90;;
19024;SDS011;9645;51.448;6.260;2023-06-19T04:22:01;4.90;;;3.73;;
19024;SDS011;9645;51.448;6.260;2023-06-19T04:24:28;8.70;;;3.80;;
19024;SDS011;9645;51.448;6.260;2023-06-19T04:26:55;7.70;;;3.60;;
19024;SDS011;9645;51.448;6.260;2023-06-19T04:29:22;5.93;;;3.60;;
19024;SDS011;9645;51.448;6.260;2023-06-19T04:31:51;5.87;;;3.70;;
19024;SDS011;9645;51.448;6.260;2023-06-19T04:34:18;8.50;;;3.70;;
19024;SDS011;9645;51.448;6.260;2023-06-19T04:36:46;7.60;;;3.80;;
19024;SDS011;9645;51.448;6.260;2023-06-19T04:39:13;8.33;;;3.63;;
19024;SDS011;9645;51.448;6.260;2023-06-19T04:41:40;17.13;;;4.10;;
19024;SDS011;9645;51.448;6.260;2023-06-19T04:44:09;5.83;;;3.83;;
19024;SDS011;9645;51.448;6.260;2023-06-19T04:46:36;5.07;;;4.10;;
19024;SDS011;9645;51.448;6.260;2023-06-19T04:49:05;7.27;;;4.63;;
19024;SDS011;9645;51.448;6.260;2023-06-19T04:51:34;6.33;;;3.80;;
19024;SDS011;9645;51.448;6.260;2023-06-19T04:54:01;4.70;;;3.40;;
19024;SDS011;9645;51.448;6.260;2023-06-19T04:56:28;11.70;;;4.30;;
19024;SDS011;9645;51.448;6.260;2023-06-19T04:58:55;4.60;;;3.77;;
19024;SDS011;9645;51.448;6.260;2023-06-19T05:01:24;7.00;;;3.70;;
19024;SDS011;9645;51.448;6.260;2023-06-19T05:03:54;6.80;;;3.77;;
19024;SDS011;9645;51.448;6.260;2023-06-19T05:06:23;5.13;;;3.57;;
19024;SDS011;9645;51.448;6.260;2023-06-19T05:08:50;9.80;;;3.70;;
19024;SDS011;9645;51.448;6.260;2023-06-19T05:11:17;11.13;;;3.97;;
19024;SDS011;9645;51.448;6.260;2023-06-19T05:13:44;7.27;;;4.10;;
19024;SDS011;9645;51.448;6.260;2023-06-19T05:16:11;4.80;;;3.40;;
19024;SDS011;9645;51.448;6.260;2023-06-19T05:18:41;7.30;;;4.10;;
19024;SDS011;9645;51.448;6.260;2023-06-19T05:21:09;12.93;;;3.90;;
19024;SDS011;9645;51.448;6.260;2023-06-19T05:23:37;6.30;;;4.20;;
19024;SDS011;9645;51.448;6.260;2023-06-19T05:26:04;4.37;;;3.70;;
19024;SDS011;9645;51.448;6.260;2023-06-19T05:28:31;4.70;;;2.87;;
19024;SDS011;9645;51.448;6.260;2023-06-19T05:30:58;4.87;;;3.40;;
19024;SDS011;9645;51.448;6.260;2023-06-19T05:33:25;6.00;;;3.67;;
19024;SDS011;9645;51.448;6.260;2023-06-19T05:35:52;4.63;;;3.50;;
19024;SDS011;9645;51.448;6.260;2023-06-19T05:38:20;4.23;;;3.70;;
19024;SDS011;9645;51.448;6.260;2023-06-19T05:40:50;7.83;;;3.70;;
19024;SDS011;9645;51.448;6.260;2023-06-19T05:43:17;7.20;;;4.33;;
19024;SDS011;9645;51.448;6.260;2023-06-19T05:45:45;8.67;;;4.43;;
19024;SDS011;9645;51.448;6.260;2023-06-19T05:48:12;8.73;;;4.17;;
19024;SDS011;9645;51.448;6.260;2023-06-19T05:50:39;5.50;;;3.57;;
19024;SDS011;9645;51.448;6.260;2023-06-19T05:53:06;4.87;;;3.60;;
19024;SDS011;9645;51.448;6.260;2023-06-19T05:55:33;6.27;;;4.03;;
19024;SDS011;9645;51.448;6.260;2023-06-19T05:58:02;5.30;;;4.00;;
19024;SDS011;9645;51.448;6.260;2023-06-19T06:00:31;5.30;;;3.80;;
19024;SDS011;9645;51.448;6.260;2023-06-19T06:02:58;7.00;;;4.60;;
19024;SDS011;9645;51.448;6.260;2023-06-19T06:05:25;6.50;;;4.80;;
19024;SDS011;9645;51.448;6.260;2023-06-19T06:07:54;6.00;;;4.57;;
19024;SDS011;9645;51.448;6.260;2023-06-19T06:10:22;6.70;;;4.60;;
19024;SDS011;9645;51.448;6.260;2023-06-19T06:12:50;6.80;;;4.43;;
19024;SDS011;9645;51.448;6.260;2023-06-19T06:15:19;8.20;;;4.73;;
19024;SDS011;9645;51.448;6.260;2023-06-19T06:17:47;9.60;;;5.13;;
19024;SDS011;9645;51.448;6.260;2023-06-19T06:20:14;8.70;;;5.20;;
19024;SDS011;9645;51.448;6.260;2023-06-19T06:22:42;7.60;;;5.00;;
19024;SDS011;9645;51.448;6.260;2023-06-19T06:25:12;6.47;;;4.33;;
19024;SDS011;9645;51.448;6.260;2023-06-19T06:27:40;9.60;;;5.00;;
19024;SDS011;9645;51.448;6.260;2023-06-19T06:30:07;5.53;;;4.63;;
19024;SDS011;9645;51.448;6.260;2023-06-19T06:32:39;7.93;;;5.10;;
19024;SDS011;9645;51.448;6.260;2023-06-19T06:35:08;18.43;;;4.60;;
19024;SDS011;9645;51.448;6.260;2023-06-19T06:37:35;8.90;;;4.97;;
19024;SDS011;9645;51.448;6.260;2023-06-19T06:40:02;10.27;;;5.13;;
19024;SDS011;9645;51.448;6.260;2023-06-19T06:42:33;10.30;;;6.07;;
19024;SDS011;9645;51.448;6.260;2023-06-19T06:45:00;10.30;;;5.53;;
19024;SDS011;9645;51.448;6.260;2023-06-19T06:47:27;7.87;;;5.33;;
19024;SDS011;9645;51.448;6.260;2023-06-19T06:49:55;8.43;;;5.07;;
19024;SDS011;9645;51.448;6.260;2023-06-19T06:52:22;9.00;;;5.57;;
19024;SDS011;9645;51.448;6.260;2023-06-19T06:54:49;8.33;;;5.60;;
19024;SDS011;9645;51.448;6.260;2023-06-19T06:57:16;11.93;;;5.97;;
19024;SDS011;9645;51.448;6.260;2023-06-19T06:59:43;10.00;;;5.20;;
19024;SDS011;9645;51.448;6.260;2023-06-19T07:02:10;9.20;;;5.80;;
19024;SDS011;9645;51.448;6.260;2023-06-19T07:04:37;7.47;;;5.00;;
19024;SDS011;9645;51.448;6.260;2023-06-19T07:07:06;8.73;;;4.53;;
19024;SDS011;9645;51.448;6.260;2023-06-19T07:09:33;6.80;;;5.87;;
19024;SDS011;9645;51.448;6.260;2023-06-19T07:12:01;8.67;;;5.30;;
19024;SDS011;9645;51.448;6.260;2023-06-19T07:14:29;8.13;;;4.80;;
19024;SDS011;9645;51.448;6.260;2023-06-19T07:16:56;6.07;;;4.60;;
19024;SDS011;9645;51.448;6.260;2023-06-19T07:19:23;9.73;;;5.50;;
19024;SDS011;9645;51.448;6.260;2023-06-19T07:21:50;7.80;;;5.20;;
19024;SDS011;9645;51.448;6.260;2023-06-19T07:24:19;8.13;;;4.93;;
19024;SDS011;9645;51.448;6.260;2023-06-19T07:26:46;7.43;;;4.30;;
19024;SDS011;9645;51.448;6.260;2023-06-19T07:29:13;10.57;;;5.23;;
19024;SDS011;9645;51.448;6.260;2023-06-19T07:31:40;6.50;;;4.07;;
19024;SDS011;9645;51.448;6.260;2023-06-19T07:34:07;14.17;;;4.10;;
19024;SDS011;9645;51.448;6.260;2023-06-19T07:36:34;6.40;;;3.50;;
19024;SDS011;9645;51.448;6.260;2023-06-19T07:39:01;5.70;;;4.20;;
19024;SDS011;9645;51.448;6.260;2023-06-19T07:41:30;7.47;;;3.53;;
19024;SDS011;9645;51.448;6.260;2023-06-19T07:43:57;5.43;;;3.10;;
19024;SDS011;9645;51.448;6.260;2023-06-19T07:46:24;3.80;;;2.93;;
19024;SDS011;9645;51.448;6.260;2023-06-19T07:48:51;4.53;;;3.17;;
19024;SDS011;9645;51.448;6.260;2023-06-19T07:51:18;7.97;;;3.20;;
19024;SDS011;9645;51.448;6.260;2023-06-19T07:53:45;8.10;;;3.20;;
19024;SDS011;9645;51.448;6.260;2023-06-19T07:56:12;6.93;;;3.00;;
19024;SDS011;9645;51.448;6.260;2023-06-19T07:58:40;4.93;;;3.70;;
19024;SDS011;9645;51.448;6.260;2023-06-19T08:01:07;4.43;;;3.70;;
19024;SDS011;9645;51.448;6.260;2023-06-19T08:03:35;4.70;;;4.00;;
19024;SDS011;9645;51.448;6.260;2023-06-19T08:06:02;8.53;;;4.43;;
19024;SDS011;9645;51.448;6.260;2023-06-19T08:08:29;6.80;;;3.83;;
19024;SDS011;9645;51.448;6.260;2023-06-19T08:10:56;5.93;;;4.03;;
19024;SDS011;9645;51.448;6.260;2023-06-19T08:13:23;5.70;;;3.80;;
19024;SDS011;9645;51.448;6.260;2023-06-19T08:15:51;6.20;;;4.10;;
19024;SDS011;9645;51.448;6.260;2023-06-19T08:18:21;4.33;;;3.80;;
19024;SDS011;9645;51.448;6.260;2023-06-19T08:20:51;6.73;;;3.63;;
19024;SDS011;9645;51.448;6.260;2023-06-19T08:23:18;6.60;;;4.63;;
19024;SDS011;9645;51.448;6.260;2023-06-19T08:25:48;6.50;;;4.70;;
19024;SDS011;9645;51.448;6.260;2023-06-19T08:28:16;7.03;;;4.40;;
19024;SDS011;9645;51.448;6.260;2023-06-19T08:30:44;9.90;;;4.53;;
19024;SDS011;9645;51.448;6.260;2023-06-19T08:33:12;6.33;;;4.03;;
19024;SDS011;9645;51.448;6.260;2023-06-19T08:35:39;8.90;;;4.97;;
19024;SDS011;9645;51.448;6.260;2023-06-19T08:38:06;9.07;;;5.20;;
19024;SDS011;9645;51.448;6.260;2023-06-19T08:40:33;6.30;;;4.60;;
19024;SDS011;9645;51.448;6.260;2023-06-19T08:43:00;8.07;;;4.83;;
19024;SDS011;9645;51.448;6.260;2023-06-19T08:45:27;8.57;;;5.13;;
19024;SDS011;9645;51.448;6.260;2023-06-19T08:47:59;6.47;;;4.83;;
19024;SDS011;9645;51.448;6.260;2023-06-19T08:50:30;9.60;;;4.43;;
19024;SDS011;9645;51.448;6.260;2023-06-19T08:52:58;5.33;;;4.50;;
19024;SDS011;9645;51.448;6.260;2023-06-19T08:55:25;7.40;;;5.20;;
19024;SDS011;9645;51.448;6.260;2023-06-19T08:57:52;9.53;;;5.00;;
19024;SDS011;9645;51.448;6.260;2023-06-19T09:00:23;7.63;;;5.33;;
19024;SDS011;9645;51.448;6.260;2023-06-19T09:02:51;11.63;;;5.33;;
19024;SDS011;9645;51.448;6.260;2023-06-19T09:05:33;6.43;;;5.20;;
19024;SDS011;9645;51.448;6.260;2023-06-19T09:08:00;11.07;;;5.30;;
19024;SDS011;9645;51.448;6.260;2023-06-19T09:10:27;9.17;;;5.40;;
19024;SDS011;9645;51.448;6.260;2023-06-19T09:12:56;9.17;;;5.87;;
19024;SDS011;9645;51.448;6.260;2023-06-19T09:15:26;9.13;;;5.00;;
19024;SDS011;9645;51.448;6.260;2023-06-19T09:17:59;7.50;;;5.80;;
19024;SDS011;9645;51.448;6.260;2023-06-19T09:20:27;8.57;;;6.07;;
19024;SDS011;9645;51.448;6.260;2023-06-19T09:22:56;10.93;;;7.23;;
19024;SDS011;9645;51.448;6.260;2023-06-19T09:25:24;11.83;;;5.90;;
19024;SDS011;9645;51.448;6.260;2023-06-19T09:27:52;12.13;;;5.90;;
19024;SDS011;9645;51.448;6.260;2023-06-19T09:30:19;15.03;;;7.17;;
19024;SDS011;9645;51.448;6.260;2023-06-19T09:32:46;8.53;;;6.80;;
19024;SDS011;9645;51.448;6.260;2023-06-19T09:35:14;12.00;;;6.97;;
19024;SDS011;9645;51.448;6.260;2023-06-19T09:37:41;17.93;;;6.77;;
19024;SDS011;9645;51.448;6.260;2023-06-19T09:40:10;9.40;;;6.97;;
19024;SDS011;9645;51.448;6.260;2023-06-19T09:42:38;10.20;;;6.43;;
19024;SDS011;9645;51.448;6.260;2023-06-19T09:45:06;8.43;;;6.00;;
19024;SDS011;9645;51.448;6.260;2023-06-19T09:47:35;7.37;;;5.57;;
19024;SDS011;9645;51.448;6.260;2023-06-19T09:50:03;13.97;;;7.07;;
19024;SDS011;9645;51.448;6.260;2023-06-19T09:52:31;9.80;;;6.40;;
19024;SDS011;9645;51.448;6.260;2023-06-19T09:54:58;10.50;;;6.97;;
19024;SDS011;9645;51.448;6.260;2023-06-19T09:57:29;9.97;;;6.80;;
19024;SDS011;9645;51.448;6.260;2023-06-19T09:59:57;12.40;;;6.77;;
19024;SDS011;9645;51.448;6.260;2023-06-19T10:02:33;17.80;;;6.20;;
19024;SDS011;9645;51.448;6.260;2023-06-19T10:05:00;9.73;;;6.70;;
19024;SDS011;9645;51.448;6.260;2023-06-19T10:07:32;11.30;;;5.60;;
19024;SDS011;9645;51.448;6.260;2023-06-19T10:10:00;7.63;;;5.63;;
19024;SDS011;9645;51.448;6.260;2023-06-19T10:12:40;22.80;;;7.10;;
19024;SDS011;9645;51.448;6.260;2023-06-19T10:17:42;8.27;;;6.23;;
19024;SDS011;9645;51.448;6.260;2023-06-19T10:20:18;10.40;;;5.97;;
19024;SDS011;9645;51.448;6.260;2023-06-19T10:22:50;7.90;;;6.50;;
19024;SDS011;9645;51.448;6.260;2023-06-19T10:25:21;18.83;;;7.90;;
19024;SDS011;9645;51.448;6.260;2023-06-19T10:27:50;14.53;;;7.30;;
19024;SDS011;9645;51.448;6.260;2023-06-19T10:30:19;14.07;;;6.50;;
19024;SDS011;9645;51.448;6.260;2023-06-19T10:32:46;9.03;;;6.57;;
19024;SDS011;9645;51.448;6.260;2023-06-19T10:35:17;11.23;;;6.67;;
19024;SDS011;9645;51.448;6.260;2023-06-19T10:37:46;9.10;;;6.80;;
19024;SDS011;9645;51.448;6.260;2023-06-19T10:40:14;13.63;;;6.50;;
19024;SDS011;9645;51.448;6.260;2023-06-19T10:42:43;6.97;;;5.80;;
19024;SDS011;9645;51.448;6.260;2023-06-19T10:45:13;7.90;;;6.53;;
19024;SDS011;9645;51.448;6.260;2023-06-19T10:47:48;9.33;;;6.30;;
19024;SDS011;9645;51.448;6.260;2023-06-19T10:50:18;7.83;;;6.40;;
19024;SDS011;9645;51.448;6.260;2023-06-19T10:52:45;13.40;;;7.90;;
19024;SDS011;9645;51.448;6.260;2023-06-19T10:55:16;15.90;;;6.70;;
19024;SDS011;9645;51.448;6.260;2023-06-19T10:57:46;12.90;;;6.83;;
19024;SDS011;9645;51.448;6.260;2023-06-19T11:00:23;9.00;;;6.90;;
19024;SDS011;9645;51.448;6.260;2023-06-19T11:03:05;11.83;;;6.40;;
19024;SDS011;9645;51.448;6.260;2023-06-19T11:05:33;7.80;;;6.47;;
19024;SDS011;9645;51.448;6.260;2023-06-19T11:08:00;11.57;;;6.90;;
19024;SDS011;9645;51.448;6.260;2023-06-19T11:10:31;10.93;;;7.33;;
19024;SDS011;9645;51.448;6.260;2023-06-19T11:13:00;7.60;;;6.37;;
19024;SDS011;9645;51.448;6.260;2023-06-19T11:15:29;12.93;;;5.90;;
19024;SDS011;9645;51.448;6.260;2023-06-19T11:18:01;9.23;;;6.20;;
19024;SDS011;9645;51.448;6.260;2023-06-19T11:20:42;13.20;;;6.17;;
19024;SDS011;9645;51.448;6.260;2023-06-19T11:23:24;14.10;;;5.90;;
19024;SDS011;9645;51.448;6.260;2023-06-19T11:26:01;8.10;;;6.30;;
19024;SDS011;9645;51.448;6.260;2023-06-19T11:28:30;12.83;;;5.83;;
19024;SDS011;9645;51.448;6.260;2023-06-19T11:31:02;8.20;;;5.67;;
19024;SDS011;9645;51.448;6.260;2023-06-19T11:33:29;9.77;;;5.53;;
19024;SDS011;9645;51.448;6.260;2023-06-19T11:35:59;9.07;;;5.70;;
19024;SDS011;9645;51.448;6.260;2023-06-19T11:38:28;9.73;;;6.27;;
19024;SDS011;9645;51.448;6.260;2023-06-19T11:40:55;7.80;;;5.80;;
19024;SDS011;9645;51.448;6.260;2023-06-19T11:43:23;10.40;;;6.20;;
19024;SDS011;9645;51.448;6.260;2023-06-19T11:45:52;8.60;;;5.67;;
19024;SDS011;9645;51.448;6.260;2023-06-19T11:48:25;10.47;;;6.10;;
19024;SDS011;9645;51.448;6.260;2023-06-19T11:50:53;10.33;;;6.17;;
19024;SDS011;9645;51.448;6.260;2023-06-19T11:53:20;8.60;;;6.23;;
19024;SDS011;9645;51.448;6.260;2023-06-19T11:55:49;6.60;;;5.60;;
19024;SDS011;9645;51.448;6.260;2023-06-19T11:58:24;7.70;;;5.63;;
19024;SDS011;9645;51.448;6.260;2023-06-19T12:00:52;10.83;;;5.63;;
19024;SDS011;9645;51.448;6.260;2023-06-19T12:03:21;8.20;;;5.90;;
19024;SDS011;9645;51.448;6.260;2023-06-19T12:05:53;6.40;;;4.90;;
19024;SDS011;9645;51.448;6.260;2023-06-19T12:08:20;11.37;;;6.67;;
19024;SDS011;9645;51.448;6.260;2023-06-19T12:10:47;9.13;;;6.40;;
19024;SDS011;9645;51.448;6.260;2023-06-19T12:13:15;10.40;;;5.73;;
19024;SDS011;9645;51.448;6.260;2023-06-19T12:15:42;15.33;;;5.80;;
19024;SDS011;9645;51.448;6.260;2023-06-19T12:18:10;6.87;;;5.80;;
19024;SDS011;9645;51.448;6.260;2023-06-19T12:20:37;9.10;;;5.70;;
19024;SDS011;9645;51.448;6.260;2023-06-19T12:23:06;12.67;;;6.33;;
19024;SDS011;9645;51.448;6.260;2023-06-19T12:25:33;9.40;;;6.40;;
19024;SDS011;9645;51.448;6.260;2023-06-19T12:28:00;9.57;;;5.90;;
19024;SDS011;9645;51.448;6.260;2023-06-19T12:30:33;7.37;;;5.23;;
19024;SDS011;9645;51.448;6.260;2023-06-19T12:33:00;7.30;;;5.57;;
19024;SDS011;9645;51.448;6.260;2023-06-19T12:35:28;7.00;;;5.17;;
19024;SDS011;9645;51.448;6.260;2023-06-19T12:38:00;11.57;;;6.30;;
19024;SDS011;9645;51.448;6.260;2023-06-19T12:40:31;11.40;;;5.97;;
19024;SDS011;9645;51.448;6.260;2023-06-19T12:46:18;11.77;;;5.67;;
19024;SDS011;9645;51.448;6.260;2023-06-19T12:48:45;9.07;;;5.67;;
19024;SDS011;9645;51.448;6.260;2023-06-19T12:51:15;10.83;;;5.20;;
19024;SDS011;9645;51.448;6.260;2023-06-19T12:53:43;8.20;;;6.40;;
19024;SDS011;9645;51.448;6.260;2023-06-19T12:56:11;10.43;;;5.30;;
19024;SDS011;9645;51.448;6.260;2023-06-19T12:58:38;8.57;;;6.17;;
19024;SDS011;9645;51.448;6.260;2023-06-19T13:01:05;16.73;;;5.80;;
19024;SDS011;9645;51.448;6.260;2023-06-19T13:03:32;8.37;;;5.33;;
19024;SDS011;9645;51.448;6.260;2023-06-19T13:05:59;10.83;;;6.03;;
19024;SDS011;9645;51.448;6.260;2023-06-19T13:08:26;11.07;;;5.00;;
19024;SDS011;9645;51.448;6.260;2023-06-19T13:10:54;8.37;;;5.80;;
19024;SDS011;9645;51.448;6.260;2023-06-19T13:13:22;6.60;;;5.73;;
19024;SDS011;9645;51.448;6.260;2023-06-19T13:15:49;11.70;;;6.73;;
19024;SDS011;9645;51.448;6.260;2023-06-19T13:18:17;9.27;;;5.70;;
19024;SDS011;9645;51.448;6.260;2023-06-19T13:20:45;8.13;;;5.70;;
19024;SDS011;9645;51.448;6.260;2023-06-19T13:23:14;7.60;;;6.27;;
19024;SDS011;9645;51.448;6.260;2023-06-19T13:25:41;11.83;;;5.73;;
19024;SDS011;9645;51.448;6.260;2023-06-19T13:28:08;10.10;;;5.90;;
19024;SDS011;9645;51.448;6.260;2023-06-19T13:30:38;7.30;;;5.40;;
19024;SDS011;9645;51.448;6.260;2023-06-19T13:33:05;7.63;;;6.20;;
19024;SDS011;9645;51.448;6.260;2023-06-19T13:35:32;7.23;;;6.20;;
19024;SDS011;9645;51.448;6.260;2023-06-19T13:37:59;9.90;;;6.63;;
19024;SDS011;9645;51.448;6.260;2023-06-19T13:40:27;13.93;;;6.37;;
19024;SDS011;9645;51.448;6.260;2023-06-19T13:42:54;9.47;;;5.70;;
19024;SDS011;9645;51.448;6.260;2023-06-19T13:45:22;8.53;;;6.00;;
19024;SDS011;9645;51.448;6.260;2023-06-19T13:47:51;12.70;;;6.10;;
19024;SDS011;9645;51.448;6.260;2023-06-19T13:50:18;10.40;;;5.70;;
19024;SDS011;9645;51.448;6.260;2023-06-19T13:52:48;8.23;;;5.70;;
19024;SDS011;9645;51.448;6.260;2023-06-19T13:55:15;7.17;;;5.53;;
19024;SDS011;9645;51.448;6.260;2023-06-19T13:57:45;11.67;;;5.97;;
19024;SDS011;9645;51.448;6.260;2023-06-19T14:00:13;11.23;;;6.47;;
19024;SDS011;9645;51.448;6.260;2023-06-19T14:02:40;8.73;;;5.53;;
19024;SDS011;9645;51.448;6.260;2023-06-19T14:05:09;10.73;;;6.20;;
19024;SDS011;9645;51.448;6.260;2023-06-19T14:07:36;8.60;;;5.90;;
19024;SDS011;9645;51.448;6.260;2023-06-19T14:10:04;9.57;;;6.50;;
19024;SDS011;9645;51.448;6.260;2023-06-19T14:12:31;8.57;;;6.40;;
19024;SDS011;9645;51.448;6.260;2023-06-19T14:14:58;14.10;;;6.70;;
19024;SDS011;9645;51.448;6.260;2023-06-19T14:17:25;8.50;;;6.50;;
19024;SDS011;9645;51.448;6.260;2023-06-19T14:19:53;6.23;;;5.43;;
19024;SDS011;9645;51.448;6.260;2023-06-19T14:22:23;5.63;;;5.03;;
19024;SDS011;9645;51.448;6.260;2023-06-19T14:24:50;7.17;;;5.67;;
19024;SDS011;9645;51.448;6.260;2023-06-19T14:27:23;7.83;;;5.63;;
19024;SDS011;9645;51.448;6.260;2023-06-19T14:29:50;10.33;;;5.97;;
19024;SDS011;9645;51.448;6.260;2023-06-19T14:32:18;8.10;;;5.70;;
19024;SDS011;9645;51.448;6.260;2023-06-19T14:34:45;7.67;;;6.17;;
19024;SDS011;9645;51.448;6.260;2023-06-19T14:37:12;7.97;;;5.70;;
19024;SDS011;9645;51.448;6.260;2023-06-19T14:39:40;9.37;;;6.57;;
19024;SDS011;9645;51.448;6.260;2023-06-19T14:42:07;8.40;;;6.20;;
19024;SDS011;9645;51.448;6.260;2023-06-19T14:44:35;6.90;;;5.50;;
19024;SDS011;9645;51.448;6.260;2023-06-19T14:47:02;7.10;;;5.83;;
19024;SDS011;9645;51.448;6.260;2023-06-19T14:49:30;11.63;;;6.00;;
19024;SDS011;9645;51.448;6.260;2023-06-19T14:51:57;8.37;;;5.57;;
19024;SDS011;9645;51.448;6.260;2023-06-19T14:54:24;10.90;;;5.67;;
19024;SDS011;9645;51.448;6.260;2023-06-19T14:56:52;13.73;;;5.80;;
19024;SDS011;9645;51.448;6.260;2023-06-19T14:59:19;7.20;;;5.87;;
19024;SDS011;9645;51.448;6.260;2023-06-19T15:01:46;17.93;;;7.17;;
19024;SDS011;9645;51.448;6.260;2023-06-19T15:04:13;7.73;;;5.70;;
19024;SDS011;9645;51.448;6.260;2023-06-19T15:06:41;8.27;;;6.50;;
19024;SDS011;9645;51.448;6.260;2023-06-19T15:09:07;8.37;;;5.93;;